sensor_id;sensor_type;location;lat;lon;timestamp;P1;durP1;ratioP1;P2;durP2;ratioP2
20846;SDS011;10584;50.854;12.902;2023-03-14T00:03:37;1.67;;;1.10;;
20846;SDS011;10584;50.854;12.902;2023-03-14T00:08:59;1.73;;;1.10;;
20846;SDS011;10584;50.854;12.902;2023-03-14T00:14:21;1.47;;;1.07;;
20846;SDS011;10584;50.854;12.902;2023-03-14T00:19:42;1.30;;;0.93;;
20846;SDS011;10584;50.854;12.902;2023-03-14T00:25:05;1.73;;;1.20;;
20846;SDS011;10584;50.854;12.902;2023-03-14T00:30:28;1.33;;;0.80;;
20846;SDS011;10584;50.854;12.902;2023-03-14T00:35:54;1.60;;;1.10;;
20846;SDS011;10584;50.854;12.902;2023-03-14T00:41:18;3.10;;;1.03;;
20846;SDS011;10584;50.854;12.902;2023-03-14T00:46:43;2.33;;;1.20;;
20846;SDS011;10584;50.854;12.902;2023-03-14T00:52:05;6.10;;;0.90;;
20846;SDS011;10584;50.854;12.902;2023-03-14T00:57:26;1.83;;;0.80;;
20846;SDS011;10584;50.854;12.902;2023-03-14T01:02:48;1.20;;;0.83;;
20846;SDS011;10584;50.854;12.902;2023-03-14T01:08:12;1.60;;;0.90;;
20846;SDS011;10584;50.854;12.902;2023-03-14T01:13:33;1.53;;;0.73;;
20846;SDS011;10584;50.854;12.902;2023-03-14T01:18:56;0.60;;;0.60;;
20846;SDS011;10584;50.854;12.902;2023-03-14T01:24:17;0.90;;;0.50;;
20846;SDS011;10584;50.854;12.902;2023-03-14T01:29:39;0.47;;;0.40;;
20846;SDS011;10584;50.854;12.902;2023-03-14T01:35:00;0.60;;;0.50;;
20846;SDS011;10584;50.854;12.902;2023-03-14T01:40:23;0.50;;;0.40;;
20846;SDS011;10584;50.854;12.902;2023-03-14T01:57:04;1.70;;;0.60;;
20846;SDS011;10584;50.854;12.902;2023-03-14T02:03:05;0.40;;;0.40;;
20846;SDS011;10584;50.854;12.902;2023-03-14T02:08:34;0.70;;;0.60;;
20846;SDS011;10584;50.854;12.902;2023-03-14T02:14:00;0.60;;;0.50;;
20846;SDS011;10584;50.854;12.902;2023-03-14T02:31:14;0.40;;;0.40;;
20846;SDS011;10584;50.854;12.902;2023-03-14T02:36:37;2.47;;;0.50;;
20846;SDS011;10584;50.854;12.902;2023-03-14T02:41:59;2.20;;;0.60;;
20846;SDS011;10584;50.854;12.902;2023-03-14T02:47:22;0.70;;;0.60;;
20846;SDS011;10584;50.854;12.902;2023-03-14T02:52:51;1.10;;;0.60;;
20846;SDS011;10584;50.854;12.902;2023-03-14T02:58:12;0.80;;;0.60;;
20846;SDS011;10584;50.854;12.902;2023-03-14T03:03:36;0.70;;;0.60;;
20846;SDS011;10584;50.854;12.902;2023-03-14T03:08:58;0.70;;;0.60;;
20846;SDS011;10584;50.854;12.902;2023-03-14T03:14:19;1.90;;;0.83;;
20846;SDS011;10584;50.854;12.902;2023-03-14T03:19:42;1.70;;;0.50;;
20846;SDS011;10584;50.854;12.902;2023-03-14T03:25:04;1.60;;;0.50;;
20846;SDS011;10584;50.854;12.902;2023-03-14T03:30:27;0.90;;;0.50;;
20846;SDS011;10584;50.854;12.902;2023-03-14T03:35:49;0.83;;;0.60;;
20846;SDS011;10584;50.854;12.902;2023-03-14T03:41:20;1.30;;;0.60;;
20846;SDS011;10584;50.854;12.902;2023-03-14T03:46:43;1.23;;;0.60;;
20846;SDS011;10584;50.854;12.902;2023-03-14T03:52:04;2.47;;;0.70;;
20846;SDS011;10584;50.854;12.902;2023-03-14T03:57:27;2.60;;;0.93;;
20846;SDS011;10584;50.854;12.902;2023-03-14T04:02:49;0.90;;;0.70;;
20846;SDS011;10584;50.854;12.902;2023-03-14T04:08:11;2.00;;;0.90;;
20846;SDS011;10584;50.854;12.902;2023-03-14T04:13:33;3.47;;;0.80;;
20846;SDS011;10584;50.854;12.902;2023-03-14T04:18:57;1.77;;;0.80;;
20846;SDS011;10584;50.854;12.902;2023-03-14T04:24:19;0.80;;;0.60;;
20846;SDS011;10584;50.854;12.902;2023-03-14T04:29:42;2.80;;;0.70;;
20846;SDS011;10584;50.854;12.902;2023-03-14T04:35:07;3.03;;;0.97;;
20846;SDS011;10584;50.854;12.902;2023-03-14T04:40:29;1.50;;;0.70;;
20846;SDS011;10584;50.854;12.902;2023-03-14T04:45:57;1.83;;;0.80;;
20846;SDS011;10584;50.854;12.902;2023-03-14T04:51:19;2.57;;;1.00;;
20846;SDS011;10584;50.854;12.902;2023-03-14T04:56:43;4.23;;;0.87;;
20846;SDS011;10584;50.854;12.902;2023-03-14T05:02:05;2.40;;;0.87;;
20846;SDS011;10584;50.854;12.902;2023-03-14T05:07:47;5.00;;;1.13;;
20846;SDS011;10584;50.854;12.902;2023-03-14T05:13:18;4.70;;;1.00;;
20846;SDS011;10584;50.854;12.902;2023-03-14T05:18:47;1.57;;;0.87;;
20846;SDS011;10584;50.854;12.902;2023-03-14T05:24:27;4.90;;;0.90;;
20846;SDS011;10584;50.854;12.902;2023-03-14T05:30:12;6.57;;;1.33;;
20846;SDS011;10584;50.854;12.902;2023-03-14T05:35:59;4.97;;;1.00;;
20846;SDS011;10584;50.854;12.902;2023-03-14T05:41:50;5.90;;;1.23;;
20846;SDS011;10584;50.854;12.902;2023-03-14T05:47:32;2.83;;;0.93;;
20846;SDS011;10584;50.854;12.902;2023-03-14T05:53:13;3.47;;;1.00;;
20846;SDS011;10584;50.854;12.902;2023-03-14T05:59:06;2.60;;;1.03;;
20846;SDS011;10584;50.854;12.902;2023-03-14T06:04:44;4.23;;;1.27;;
20846;SDS011;10584;50.854;12.902;2023-03-14T06:10:06;4.40;;;0.93;;
20846;SDS011;10584;50.854;12.902;2023-03-14T06:15:30;1.87;;;1.00;;
20846;SDS011;10584;50.854;12.902;2023-03-14T06:20:53;5.50;;;1.10;;
20846;SDS011;10584;50.854;12.902;2023-03-14T06:26:18;4.87;;;1.30;;
20846;SDS011;10584;50.854;12.902;2023-03-14T06:31:42;7.17;;;1.27;;
20846;SDS011;10584;50.854;12.902;2023-03-14T06:37:07;1.87;;;0.87;;
20846;SDS011;10584;50.854;12.902;2023-03-14T06:42:29;10.80;;;1.33;;
20846;SDS011;10584;50.854;12.902;2023-03-14T06:47:51;2.63;;;1.03;;
20846;SDS011;10584;50.854;12.902;2023-03-14T06:53:17;5.87;;;1.20;;
20846;SDS011;10584;50.854;12.902;2023-03-14T06:58:39;3.87;;;1.20;;
20846;SDS011;10584;50.854;12.902;2023-03-14T07:04:03;2.47;;;1.00;;
20846;SDS011;10584;50.854;12.902;2023-03-14T07:09:26;1.60;;;0.90;;
20846;SDS011;10584;50.854;12.902;2023-03-14T07:14:52;3.23;;;1.00;;
20846;SDS011;10584;50.854;12.902;2023-03-14T07:20:15;4.93;;;1.00;;
20846;SDS011;10584;50.854;12.902;2023-03-14T07:25:38;3.83;;;1.17;;
20846;SDS011;10584;50.854;12.902;2023-03-14T07:31:01;4.70;;;1.20;;
20846;SDS011;10584;50.854;12.902;2023-03-14T07:36:24;3.10;;;1.00;;
20846;SDS011;10584;50.854;12.902;2023-03-14T07:41:47;1.57;;;0.90;;
20846;SDS011;10584;50.854;12.902;2023-03-14T07:47:29;3.03;;;1.13;;
20846;SDS011;10584;50.854;12.902;2023-03-14T07:52:51;4.07;;;1.10;;
20846;SDS011;10584;50.854;12.902;2023-03-14T07:58:13;1.43;;;1.00;;
20846;SDS011;10584;50.854;12.902;2023-03-14T08:03:35;2.33;;;0.90;;
20846;SDS011;10584;50.854;12.902;2023-03-14T08:08:57;2.77;;;0.90;;
20846;SDS011;10584;50.854;12.902;2023-03-14T08:14:19;3.53;;;1.17;;
20846;SDS011;10584;50.854;12.902;2023-03-14T08:19:41;1.77;;;0.90;;
20846;SDS011;10584;50.854;12.902;2023-03-14T08:25:03;5.17;;;1.23;;
20846;SDS011;10584;50.854;12.902;2023-03-14T08:30:25;4.63;;;1.10;;
20846;SDS011;10584;50.854;12.902;2023-03-14T08:35:47;2.23;;;0.87;;
20846;SDS011;10584;50.854;12.902;2023-03-14T08:41:09;1.97;;;0.90;;
20846;SDS011;10584;50.854;12.902;2023-03-14T08:46:31;2.23;;;0.90;;
20846;SDS011;10584;50.854;12.902;2023-03-14T08:51:52;2.17;;;0.80;;
20846;SDS011;10584;50.854;12.902;2023-03-14T08:57:14;1.87;;;0.83;;
20846;SDS011;10584;50.854;12.902;2023-03-14T09:02:36;2.17;;;0.90;;
20846;SDS011;10584;50.854;12.902;2023-03-14T09:07:57;1.37;;;0.80;;
20846;SDS011;10584;50.854;12.902;2023-03-14T09:13:19;0.70;;;0.60;;
20846;SDS011;10584;50.854;12.902;2023-03-14T09:18:41;3.50;;;0.80;;
20846;SDS011;10584;50.854;12.902;2023-03-14T09:24:03;2.60;;;0.70;;
20846;SDS011;10584;50.854;12.902;2023-03-14T09:29:25;1.40;;;0.80;;
20846;SDS011;10584;50.854;12.902;2023-03-14T09:34:47;1.27;;;0.70;;
20846;SDS011;10584;50.854;12.902;2023-03-14T09:40:12;2.40;;;0.80;;
20846;SDS011;10584;50.854;12.902;2023-03-14T09:45:36;1.90;;;0.80;;
20846;SDS011;10584;50.854;12.902;2023-03-14T09:51:01;2.67;;;0.80;;
20846;SDS011;10584;50.854;12.902;2023-03-14T09:56:44;1.60;;;1.00;;
20846;SDS011;10584;50.854;12.902;2023-03-14T10:02:16;1.33;;;1.03;;
20846;SDS011;10584;50.854;12.902;2023-03-14T10:07:42;1.13;;;0.87;;
20846;SDS011;10584;50.854;12.902;2023-03-14T10:13:18;2.80;;;0.80;;
20846;SDS011;10584;50.854;12.902;2023-03-14T10:18:46;2.43;;;0.80;;
20846;SDS011;10584;50.854;12.902;2023-03-14T10:24:08;1.47;;;1.00;;
20846;SDS011;10584;50.854;12.902;2023-03-14T10:29:37;1.27;;;0.80;;
20846;SDS011;10584;50.854;12.902;2023-03-14T10:35:20;2.63;;;0.77;;
20846;SDS011;10584;50.854;12.902;2023-03-14T10:40:47;1.50;;;0.90;;
20846;SDS011;10584;50.854;12.902;2023-03-14T10:46:13;2.93;;;1.03;;
20846;SDS011;10584;50.854;12.902;2023-03-14T10:52:00;2.17;;;0.63;;
20846;SDS011;10584;50.854;12.902;2023-03-14T10:57:32;0.90;;;0.70;;
20846;SDS011;10584;50.854;12.902;2023-03-14T11:03:10;2.33;;;0.80;;
20846;SDS011;10584;50.854;12.902;2023-03-14T11:14:14;2.43;;;0.70;;
20846;SDS011;10584;50.854;12.902;2023-03-14T11:19:42;2.03;;;0.80;;
20846;SDS011;10584;50.854;12.902;2023-03-14T11:26:16;2.90;;;0.90;;
20846;SDS011;10584;50.854;12.902;2023-03-14T11:31:38;5.13;;;0.80;;
20846;SDS011;10584;50.854;12.902;2023-03-14T11:37:17;1.60;;;0.90;;
20846;SDS011;10584;50.854;12.902;2023-03-14T12:11:20;1.53;;;0.70;;
20846;SDS011;10584;50.854;12.902;2023-03-14T12:17:24;1.80;;;0.50;;
20846;SDS011;10584;50.854;12.902;2023-03-14T12:23:04;0.97;;;0.40;;
20846;SDS011;10584;50.854;12.902;2023-03-14T12:28:32;0.83;;;0.50;;
20846;SDS011;10584;50.854;12.902;2023-03-14T12:34:04;1.20;;;0.70;;
20846;SDS011;10584;50.854;12.902;2023-03-14T12:46:06;1.10;;;0.50;;
20846;SDS011;10584;50.854;12.902;2023-03-14T12:51:45;0.60;;;0.60;;
20846;SDS011;10584;50.854;12.902;2023-03-14T13:02:38;1.47;;;0.60;;
20846;SDS011;10584;50.854;12.902;2023-03-14T13:08:06;1.80;;;0.60;;
20846;SDS011;10584;50.854;12.902;2023-03-14T13:13:29;0.50;;;0.50;;
20846;SDS011;10584;50.854;12.902;2023-03-14T13:19:02;1.40;;;0.60;;
20846;SDS011;10584;50.854;12.902;2023-03-14T13:24:34;0.77;;;0.40;;
20846;SDS011;10584;50.854;12.902;2023-03-14T13:29:56;0.67;;;0.53;;
20846;SDS011;10584;50.854;12.902;2023-03-14T13:40:39;0.97;;;0.60;;
20846;SDS011;10584;50.854;12.902;2023-03-14T13:46:06;0.50;;;0.50;;
20846;SDS011;10584;50.854;12.902;2023-03-14T13:51:36;0.70;;;0.50;;
20846;SDS011;10584;50.854;12.902;2023-03-14T13:57:00;1.70;;;0.53;;
20846;SDS011;10584;50.854;12.902;2023-03-14T14:02:23;2.10;;;0.80;;
20846;SDS011;10584;50.854;12.902;2023-03-14T14:07:48;1.80;;;0.70;;
20846;SDS011;10584;50.854;12.902;2023-03-14T14:13:12;2.83;;;0.77;;
20846;SDS011;10584;50.854;12.902;2023-03-14T14:18:39;1.00;;;0.67;;
20846;SDS011;10584;50.854;12.902;2023-03-14T14:24:01;3.53;;;0.90;;
20846;SDS011;10584;50.854;12.902;2023-03-14T14:29:32;1.37;;;0.73;;
20846;SDS011;10584;50.854;12.902;2023-03-14T14:40:19;0.90;;;0.80;;
20846;SDS011;10584;50.854;12.902;2023-03-14T14:45:47;0.90;;;0.60;;
20846;SDS011;10584;50.854;12.902;2023-03-14T14:51:21;1.23;;;0.70;;
20846;SDS011;10584;50.854;12.902;2023-03-14T14:56:52;1.10;;;0.70;;
20846;SDS011;10584;50.854;12.902;2023-03-14T15:02:40;1.60;;;0.70;;
20846;SDS011;10584;50.854;12.902;2023-03-14T15:08:10;2.43;;;0.70;;
20846;SDS011;10584;50.854;12.902;2023-03-14T15:13:32;1.47;;;0.77;;
20846;SDS011;10584;50.854;12.902;2023-03-14T15:18:55;8.60;;;0.80;;
20846;SDS011;10584;50.854;12.902;2023-03-14T15:24:18;3.83;;;0.80;;
20846;SDS011;10584;50.854;12.902;2023-03-14T15:29:41;1.07;;;0.70;;
20846;SDS011;10584;50.854;12.902;2023-03-14T15:35:03;2.13;;;0.80;;
20846;SDS011;10584;50.854;12.902;2023-03-14T15:40:25;1.87;;;0.80;;
20846;SDS011;10584;50.854;12.902;2023-03-14T15:45:49;2.00;;;0.83;;
20846;SDS011;10584;50.854;12.902;2023-03-14T15:51:12;1.00;;;0.60;;
20846;SDS011;10584;50.854;12.902;2023-03-14T15:56:34;2.40;;;0.90;;
20846;SDS011;10584;50.854;12.902;2023-03-14T16:01:59;2.70;;;0.80;;
20846;SDS011;10584;50.854;12.902;2023-03-14T16:07:21;3.13;;;0.90;;
20846;SDS011;10584;50.854;12.902;2023-03-14T16:12:42;1.83;;;1.07;;
20846;SDS011;10584;50.854;12.902;2023-03-14T16:18:04;1.50;;;0.50;;
20846;SDS011;10584;50.854;12.902;2023-03-14T16:23:40;0.50;;;0.50;;
20846;SDS011;10584;50.854;12.902;2023-03-14T16:29:02;1.23;;;1.00;;
20846;SDS011;10584;50.854;12.902;2023-03-14T16:34:24;2.90;;;1.40;;
20846;SDS011;10584;50.854;12.902;2023-03-14T16:39:46;0.83;;;0.80;;
20846;SDS011;10584;50.854;12.902;2023-03-14T16:45:28;4.37;;;0.90;;
20846;SDS011;10584;50.854;12.902;2023-03-14T16:50:50;1.67;;;1.40;;
20846;SDS011;10584;50.854;12.902;2023-03-14T16:56:12;2.13;;;1.70;;
20846;SDS011;10584;50.854;12.902;2023-03-14T17:01:34;1.93;;;1.50;;
20846;SDS011;10584;50.854;12.902;2023-03-14T17:06:57;2.50;;;1.50;;
20846;SDS011;10584;50.854;12.902;2023-03-14T17:12:19;1.97;;;1.50;;
20846;SDS011;10584;50.854;12.902;2023-03-14T17:17:40;2.50;;;1.80;;
20846;SDS011;10584;50.854;12.902;2023-03-14T17:23:02;2.47;;;1.63;;
20846;SDS011;10584;50.854;12.902;2023-03-14T17:28:24;2.37;;;1.50;;
20846;SDS011;10584;50.854;12.902;2023-03-14T17:33:46;1.80;;;1.10;;
20846;SDS011;10584;50.854;12.902;2023-03-14T17:39:10;2.50;;;1.60;;
20846;SDS011;10584;50.854;12.902;2023-03-14T17:44:35;5.10;;;1.93;;
20846;SDS011;10584;50.854;12.902;2023-03-14T17:49:57;5.00;;;1.90;;
20846;SDS011;10584;50.854;12.902;2023-03-14T17:55:18;5.63;;;2.93;;
20846;SDS011;10584;50.854;12.902;2023-03-14T18:00:40;3.20;;;1.77;;
20846;SDS011;10584;50.854;12.902;2023-03-14T18:06:05;8.30;;;2.93;;
20846;SDS011;10584;50.854;12.902;2023-03-14T18:11:28;5.67;;;3.40;;
20846;SDS011;10584;50.854;12.902;2023-03-14T18:16:50;10.57;;;3.27;;
20846;SDS011;10584;50.854;12.902;2023-03-14T18:22:12;7.67;;;3.00;;
20846;SDS011;10584;50.854;12.902;2023-03-14T18:27:35;7.47;;;3.10;;
20846;SDS011;10584;50.854;12.902;2023-03-14T18:32:57;8.40;;;2.77;;
20846;SDS011;10584;50.854;12.902;2023-03-14T18:38:19;8.87;;;3.20;;
20846;SDS011;10584;50.854;12.902;2023-03-14T18:43:41;11.57;;;3.40;;
20846;SDS011;10584;50.854;12.902;2023-03-14T18:49:03;15.20;;;3.30;;
20846;SDS011;10584;50.854;12.902;2023-03-14T18:54:25;11.97;;;3.27;;
20846;SDS011;10584;50.854;12.902;2023-03-14T18:59:46;10.77;;;3.10;;
20846;SDS011;10584;50.854;12.902;2023-03-14T19:05:08;15.07;;;2.80;;
20846;SDS011;10584;50.854;12.902;2023-03-14T19:10:32;12.30;;;2.43;;
20846;SDS011;10584;50.854;12.902;2023-03-14T19:15:54;9.90;;;2.27;;
20846;SDS011;10584;50.854;12.902;2023-03-14T19:21:27;13.33;;;2.70;;
20846;SDS011;10584;50.854;12.902;2023-03-14T19:26:53;15.80;;;3.13;;
20846;SDS011;10584;50.854;12.902;2023-03-14T19:32:15;16.57;;;2.90;;
20846;SDS011;10584;50.854;12.902;2023-03-14T19:37:39;14.20;;;3.07;;
20846;SDS011;10584;50.854;12.902;2023-03-14T19:43:01;20.93;;;3.40;;
20846;SDS011;10584;50.854;12.902;2023-03-14T19:48:23;13.10;;;2.63;;
20846;SDS011;10584;50.854;12.902;2023-03-14T19:53:50;12.10;;;2.60;;
20846;SDS011;10584;50.854;12.902;2023-03-14T19:59:12;10.73;;;2.33;;
20846;SDS011;10584;50.854;12.902;2023-03-14T20:04:34;19.03;;;2.70;;
20846;SDS011;10584;50.854;12.902;2023-03-14T20:09:56;14.17;;;2.80;;
20846;SDS011;10584;50.854;12.902;2023-03-14T20:15:18;12.53;;;2.63;;
20846;SDS011;10584;50.854;12.902;2023-03-14T20:20:41;11.97;;;2.40;;
20846;SDS011;10584;50.854;12.902;2023-03-14T20:26:03;11.07;;;3.27;;
20846;SDS011;10584;50.854;12.902;2023-03-14T20:31:25;11.03;;;3.43;;
20846;SDS011;10584;50.854;12.902;2023-03-14T20:36:47;23.77;;;2.97;;
20846;SDS011;10584;50.854;12.902;2023-03-14T20:42:12;13.20;;;2.67;;
20846;SDS011;10584;50.854;12.902;2023-03-14T20:47:34;24.03;;;3.00;;
20846;SDS011;10584;50.854;12.902;2023-03-14T20:52:56;11.60;;;2.70;;
20846;SDS011;10584;50.854;12.902;2023-03-14T20:58:17;12.57;;;2.90;;
20846;SDS011;10584;50.854;12.902;2023-03-14T21:03:39;19.43;;;3.40;;
20846;SDS011;10584;50.854;12.902;2023-03-14T21:09:01;12.37;;;3.00;;
20846;SDS011;10584;50.854;12.902;2023-03-14T21:14:24;10.10;;;2.50;;
20846;SDS011;10584;50.854;12.902;2023-03-14T21:19:46;12.60;;;2.77;;
20846;SDS011;10584;50.854;12.902;2023-03-14T21:25:08;13.07;;;2.97;;
20846;SDS011;10584;50.854;12.902;2023-03-14T21:30:30;13.90;;;3.50;;
20846;SDS011;10584;50.854;12.902;2023-03-14T21:35:53;15.27;;;2.97;;
20846;SDS011;10584;50.854;12.902;2023-03-14T21:41:15;9.47;;;2.50;;
20846;SDS011;10584;50.854;12.902;2023-03-14T21:46:36;10.30;;;2.37;;
20846;SDS011;10584;50.854;12.902;2023-03-14T21:51:58;9.87;;;2.30;;
20846;SDS011;10584;50.854;12.902;2023-03-14T21:57:24;7.97;;;2.10;;
20846;SDS011;10584;50.854;12.902;2023-03-14T22:02:49;12.23;;;2.80;;
20846;SDS011;10584;50.854;12.902;2023-03-14T22:08:30;8.40;;;2.87;;
20846;SDS011;10584;50.854;12.902;2023-03-14T22:13:52;6.33;;;1.90;;
20846;SDS011;10584;50.854;12.902;2023-03-14T22:19:14;10.87;;;2.63;;
20846;SDS011;10584;50.854;12.902;2023-03-14T22:24:35;11.17;;;2.67;;
20846;SDS011;10584;50.854;12.902;2023-03-14T22:29:57;7.40;;;2.20;;
20846;SDS011;10584;50.854;12.902;2023-03-14T22:35:19;10.37;;;2.70;;
20846;SDS011;10584;50.854;12.902;2023-03-14T22:40:43;7.03;;;2.27;;
20846;SDS011;10584;50.854;12.902;2023-03-14T22:46:05;13.03;;;2.33;;
20846;SDS011;10584;50.854;12.902;2023-03-14T22:51:28;10.33;;;2.37;;
20846;SDS011;10584;50.854;12.902;2023-03-14T22:56:50;6.67;;;2.10;;
20846;SDS011;10584;50.854;12.902;2023-03-14T23:02:12;9.40;;;2.40;;
20846;SDS011;10584;50.854;12.902;2023-03-14T23:07:33;8.37;;;2.20;;
20846;SDS011;10584;50.854;12.902;2023-03-14T23:12:55;13.90;;;2.60;;
20846;SDS011;10584;50.854;12.902;2023-03-14T23:18:16;11.33;;;2.63;;
20846;SDS011;10584;50.854;12.902;2023-03-14T23:23:39;9.63;;;3.00;;
20846;SDS011;10584;50.854;12.902;2023-03-14T23:29:02;5.30;;;1.90;;
20846;SDS011;10584;50.854;12.902;2023-03-14T23:34:26;16.53;;;2.50;;
20846;SDS011;10584;50.854;12.902;2023-03-14T23:39:48;9.67;;;1.93;;
20846;SDS011;10584;50.854;12.902;2023-03-14T23:45:10;13.00;;;2.20;;
20846;SDS011;10584;50.854;12.902;2023-03-14T23:50:34;11.20;;;2.10;;
20846;SDS011;10584;50.854;12.902;2023-03-14T23:55:56;13.03;;;2.40;;
